Time;durP1;ratioP1;P1;durP2;ratioP2;P2;SDS_P1;SDS_P2;PMS_P1;PMS_P2;Temp;Humidity;BMP_temperature;BMP_pressure;BME280_temperature;BME280_humidity;BME280_pressure;Samples;Min_cycle;Max_cycle;Signal;HPM_P1;HPM_P2
2021/12/02 00:01:17;;;;;;;9.73;2.90;;;;;;;;;;5081195;28;20268;-77
2021/12/02 00:03:43;;;;;;;7.28;2.55;;;;;;;;;;5077062;28;20077;-76
2021/12/02 00:06:11;;;;;;;7.97;2.30;;;;;;;;;;5077986;28;20012;-76
2021/12/02 00:08:37;;;;;;;7.80;2.60;;;;;;;;;;5077499;28;20275;-76
2021/12/02 00:11:03;;;;;;;7.93;2.60;;;;;;;;;;5077562;28;20031;-76
2021/12/02 00:13:29;;;;;;;9.27;2.30;;;;;;;;;;5079229;28;20099;-76
2021/12/02 00:16:05;;;;;;;5.43;2.30;;;;;;;;;;5079590;28;20035;-77
2021/12/02 00:21:20;;;;;;;;;;;;;;;;;;5068421;28;20121;-76
2021/12/02 00:24:07;;;;;;;8.63;2.33;;;;;;;;;;5095578;28;19912;-76
2021/12/02 00:26:38;;;;;;;7.82;2.20;;;;;;;;;;5092519;28;20027;-76
2021/12/02 00:29:06;;;;;;;7.45;2.10;;;;;;;;;;5082332;28;20025;-76
2021/12/02 00:31:34;;;;;;;5.55;2.15;;;;;;;;;;5082785;28;20040;-76
2021/12/02 00:34:03;;;;;;;5.70;1.80;;;;;;;;;;5082656;28;20025;-76
2021/12/02 00:36:30;;;;;;;8.40;2.08;;;;;;;;;;5085563;28;20100;-76
2021/12/02 00:38:56;;;;;;;5.65;1.63;;;;;;;;;;5082009;28;20066;-77
2021/12/02 00:41:25;;;;;;;6.40;2.03;;;;;;;;;;5082152;28;20251;-77
2021/12/02 00:43:52;;;;;;;9.63;2.17;;;;;;;;;;5087126;28;20132;-77
2021/12/02 00:46:20;;;;;;;5.78;2.00;;;;;;;;;;5084220;28;20336;-77
2021/12/02 00:48:46;;;;;;;5.97;2.20;;;;;;;;;;5081956;28;20265;-77
2021/12/02 00:51:12;;;;;;;6.80;2.22;;;;;;;;;;5082027;28;20020;-77
2021/12/02 00:53:44;;;;;;;5.15;2.00;;;;;;;;;;5081698;28;20044;-77
2021/12/02 00:56:12;;;;;;;7.07;1.92;;;;;;;;;;5080615;28;20024;-77
2021/12/02 00:58:38;;;;;;;9.43;1.80;;;;;;;;;;5082123;28;20120;-77
2021/12/02 01:01:04;;;;;;;5.57;2.00;;;;;;;;;;5081855;28;20016;-77
2021/12/02 01:03:34;;;;;;;8.23;2.05;;;;;;;;;;5082069;28;20024;-76
2021/12/02 01:06:00;;;;;;;3.20;1.50;;;;;;;;;;5082043;28;20154;-76
2021/12/02 01:08:27;;;;;;;4.85;1.77;;;;;;;;;;5081515;28;20029;-78
2021/12/02 01:10:53;;;;;;;7.13;2.05;;;;;;;;;;5081642;28;20040;-77
2021/12/02 01:13:20;;;;;;;8.15;2.15;;;;;;;;;;5081919;28;20028;-77
2021/12/02 01:15:46;;;;;;;5.55;2.00;;;;;;;;;;5081783;28;20043;-77
2021/12/02 01:18:12;;;;;;;5.63;1.75;;;;;;;;;;5084951;28;20240;-77
2021/12/02 01:20:38;;;;;;;4.85;1.90;;;;;;;;;;5081577;28;20021;-77
2021/12/02 01:23:04;;;;;;;5.13;1.77;;;;;;;;;;5092185;28;20343;-77
2021/12/02 01:25:31;;;;;;;6.03;1.75;;;;;;;;;;5103153;28;20028;-77
2021/12/02 01:27:58;;;;;;;8.20;1.98;;;;;;;;;;5102196;28;20198;-76
2021/12/02 01:30:26;;;;;;;7.22;1.90;;;;;;;;;;5101458;28;20032;-76
2021/12/02 01:32:58;;;;;;;6.03;1.95;;;;;;;;;;5101082;28;20039;-76
2021/12/02 01:35:25;;;;;;;5.07;1.58;;;;;;;;;;5090237;28;20028;-76
2021/12/02 01:37:51;;;;;;;3.88;1.67;;;;;;;;;;5086123;28;20020;-75
2021/12/02 01:40:17;;;;;;;4.60;2.20;;;;;;;;;;5083412;28;20084;-76
2021/12/02 01:42:46;;;;;;;4.78;1.65;;;;;;;;;;5081518;28;20027;-75
2021/12/02 01:45:15;;;;;;;6.07;2.35;;;;;;;;;;5081111;28;20111;-76
2021/12/02 01:47:47;;;;;;;4.78;1.60;;;;;;;;;;5081259;28;20036;-75
2021/12/02 01:50:14;;;;;;;5.05;1.88;;;;;;;;;;5080968;28;20188;-76
2021/12/02 01:52:44;;;;;;;5.78;2.15;;;;;;;;;;5084510;28;20012;-76
2021/12/02 01:55:12;;;;;;;5.38;2.08;;;;;;;;;;5081168;28;20044;-76
2021/12/02 01:57:47;;;;;;;7.45;2.10;;;;;;;;;;5080865;28;20094;-77
2021/12/02 02:00:18;;;;;;;5.45;2.30;;;;;;;;;;5080960;28;20320;-76
2021/12/02 02:02:43;;;;;;;7.10;2.20;;;;;;;;;;5080916;28;20032;-76
2021/12/02 02:05:13;;;;;;;6.53;2.30;;;;;;;;;;5080677;28;20407;-75
2021/12/02 02:07:54;;;;;;;3.97;2.05;;;;;;;;;;5079280;28;20031;-76
2021/12/02 02:10:20;;;;;;;6.78;2.30;;;;;;;;;;5084520;28;20058;-76
2021/12/02 02:12:45;;;;;;;8.40;2.70;;;;;;;;;;5080710;28;20092;-76
2021/12/02 02:15:11;;;;;;;6.93;2.20;;;;;;;;;;5080706;28;20269;-76
2021/12/02 02:17:47;;;;;;;8.10;2.50;;;;;;;;;;5080635;28;20035;-78
2021/12/02 02:20:14;;;;;;;6.25;2.50;;;;;;;;;;5080695;28;20013;-76
2021/12/02 02:22:40;;;;;;;6.72;2.42;;;;;;;;;;5079869;28;20101;-76
2021/12/02 02:25:11;;;;;;;6.03;2.70;;;;;;;;;;5080604;28;20242;-75
2021/12/02 02:27:37;;;;;;;5.25;2.60;;;;;;;;;;5081474;28;20020;-76
2021/12/02 02:30:04;;;;;;;7.40;2.90;;;;;;;;;;5087000;28;20115;-76
2021/12/02 02:32:31;;;;;;;5.55;2.60;;;;;;;;;;5096567;28;20018;-76
2021/12/02 02:34:57;;;;;;;6.32;2.75;;;;;;;;;;5089582;28;20208;-76
2021/12/02 02:37:22;;;;;;;7.07;3.25;;;;;;;;;;5091911;28;20013;-76
2021/12/02 02:39:48;;;;;;;6.88;3.00;;;;;;;;;;5093097;28;20320;-76
2021/12/02 02:42:13;;;;;;;5.15;2.60;;;;;;;;;;5096477;28;20013;-75
2021/12/02 02:44:39;;;;;;;6.63;3.08;;;;;;;;;;5081781;28;20028;-76
2021/12/02 02:47:05;;;;;;;6.68;3.08;;;;;;;;;;5086850;28;20048;-76
2021/12/02 02:49:30;;;;;;;6.60;3.05;;;;;;;;;;5091988;28;20028;-76
2021/12/02 02:51:55;;;;;;;6.40;3.00;;;;;;;;;;5101167;28;20031;-76
2021/12/02 02:54:22;;;;;;;7.60;3.05;;;;;;;;;;5101530;28;20053;-76
2021/12/02 02:57:04;;;;;;;10.25;3.10;;;;;;;;;;5100267;28;20323;-76
2021/12/02 03:04:41;;;;;;;8.00;3.63;;;;;;;;;;5101402;28;20044;-76
2021/12/02 03:07:12;;;;;;;6.05;2.78;;;;;;;;;;5083300;28;20028;-76
2021/12/02 03:09:50;;;;;;;6.13;2.58;;;;;;;;;;5089730;28;20329;-76
2021/12/02 03:12:28;;;;;;;5.93;2.50;;;;;;;;;;5080944;28;20028;-76
2021/12/02 03:17:27;;;;;;;7.13;2.35;;;;;;;;;;5083186;28;20091;-76
2021/12/02 03:19:53;;;;;;;4.43;2.22;;;;;;;;;;5101044;28;20085;-76
2021/12/02 03:22:18;;;;;;;4.70;2.40;;;;;;;;;;5101209;28;20063;-76
2021/12/02 03:24:44;;;;;;;5.85;2.22;;;;;;;;;;5101446;28;20393;-76
2021/12/02 03:27:10;;;;;;;8.23;2.50;;;;;;;;;;5086472;28;20028;-76
2021/12/02 03:29:35;;;;;;;5.50;2.28;;;;;;;;;;5082100;28;20209;-76
2021/12/02 03:32:01;;;;;;;7.53;2.30;;;;;;;;;;5096303;28;20020;-76
2021/12/02 03:34:27;;;;;;;7.88;2.22;;;;;;;;;;5100994;28;20086;-75
2021/12/02 03:36:53;;;;;;;9.55;2.15;;;;;;;;;;5099818;28;20024;-75
2021/12/02 03:39:19;;;;;;;4.60;1.90;;;;;;;;;;5090378;28;20020;-76
2021/12/02 03:41:45;;;;;;;5.22;2.03;;;;;;;;;;5080729;28;20095;-76
2021/12/02 03:44:11;;;;;;;6.22;1.88;;;;;;;;;;5080686;28;20028;-76
2021/12/02 03:46:37;;;;;;;6.60;1.73;;;;;;;;;;5082110;28;20020;-76
2021/12/02 03:49:03;;;;;;;5.38;1.60;;;;;;;;;;5080519;28;20093;-76
2021/12/02 03:51:29;;;;;;;7.97;1.85;;;;;;;;;;5079615;28;20048;-76
2021/12/02 03:53:55;;;;;;;6.22;1.88;;;;;;;;;;5083606;28;20023;-76
2021/12/02 03:56:21;;;;;;;3.35;1.27;;;;;;;;;;5091876;28;20024;-76
2021/12/02 03:58:48;;;;;;;6.20;1.40;;;;;;;;;;5084476;28;20071;-76
2021/12/02 04:01:15;;;;;;;6.22;1.38;;;;;;;;;;5085741;28;20013;-76
2021/12/02 04:03:41;;;;;;;7.20;1.63;;;;;;;;;;5101858;28;20032;-77
2021/12/02 04:06:08;;;;;;;4.97;1.50;;;;;;;;;;5098777;28;20048;-76
2021/12/02 04:08:43;;;;;;;6.03;1.33;;;;;;;;;;5100911;28;20040;-76
2021/12/02 04:11:20;;;;;;;7.35;1.40;;;;;;;;;;5103104;28;20069;-76
2021/12/02 04:16:17;;;;;;;8.43;1.90;;;;;;;;;;5092391;28;20016;-76
2021/12/02 04:18:43;;;;;;;5.38;1.60;;;;;;;;;;5104736;28;20039;-76
2021/12/02 04:21:08;;;;;;;5.63;2.13;;;;;;;;;;5104370;28;20185;-78
2021/12/02 04:23:34;;;;;;;9.38;2.10;;;;;;;;;;5102573;28;20032;-75
2021/12/02 04:25:59;;;;;;;6.57;1.55;;;;;;;;;;5102490;28;20073;-75
2021/12/02 04:28:24;;;;;;;5.65;1.33;;;;;;;;;;5103730;28;20351;-76
2021/12/02 04:30:50;;;;;;;7.07;1.48;;;;;;;;;;5101953;28;20103;-76
2021/12/02 04:33:15;;;;;;;7.80;1.35;;;;;;;;;;5083868;28;20182;-76
2021/12/02 04:35:41;;;;;;;3.75;1.02;;;;;;;;;;5091033;28;20020;-78
2021/12/02 04:38:06;;;;;;;4.80;1.30;;;;;;;;;;5103704;28;20066;-78
2021/12/02 04:40:32;;;;;;;4.53;1.35;;;;;;;;;;5103495;28;20055;-78
2021/12/02 04:42:57;;;;;;;5.65;1.20;;;;;;;;;;5094115;28;20123;-78
2021/12/02 04:45:22;;;;;;;3.97;1.23;;;;;;;;;;5083871;28;20035;-78
2021/12/02 04:47:48;;;;;;;3.38;1.13;;;;;;;;;;5083874;28;20025;-75
2021/12/02 04:50:13;;;;;;;3.65;1.10;;;;;;;;;;5083526;28;20028;-78
2021/12/02 04:52:39;;;;;;;5.80;1.25;;;;;;;;;;5093821;28;20069;-75
2021/12/02 04:55:05;;;;;;;5.18;1.25;;;;;;;;;;5103704;28;20047;-76
2021/12/02 04:57:31;;;;;;;8.05;1.40;;;;;;;;;;5097660;28;20312;-78
2021/12/02 04:59:56;;;;;;;3.25;1.15;;;;;;;;;;5095253;28;20093;-76
2021/12/02 05:02:21;;;;;;;9.73;1.35;;;;;;;;;;5103001;28;20309;-76
2021/12/02 05:04:47;;;;;;;5.90;1.60;;;;;;;;;;5101777;28;20052;-76
2021/12/02 05:07:12;;;;;;;8.25;1.63;;;;;;;;;;5096837;28;20021;-76
2021/12/02 05:09:37;;;;;;;9.68;1.30;;;;;;;;;;5082981;28;20071;-76
2021/12/02 05:12:04;;;;;;;4.88;1.30;;;;;;;;;;5083149;28;20426;-76
2021/12/02 05:14:29;;;;;;;4.93;1.30;;;;;;;;;;5083196;28;20091;-76
2021/12/02 05:16:55;;;;;;;6.03;1.40;;;;;;;;;;5083438;28;20035;-77
2021/12/02 05:19:20;;;;;;;7.85;1.50;;;;;;;;;;5083113;28;20032;-76
2021/12/02 05:21:45;;;;;;;7.78;1.55;;;;;;;;;;5090422;28;20095;-76
2021/12/02 05:24:11;;;;;;;6.90;1.42;;;;;;;;;;5088390;28;20325;-78
2021/12/02 05:26:37;;;;;;;8.63;1.60;;;;;;;;;;5085459;28;20024;-77
2021/12/02 05:29:02;;;;;;;2.65;1.00;;;;;;;;;;5102674;28;20121;-77
2021/12/02 05:31:28;;;;;;;7.15;1.35;;;;;;;;;;5088589;28;20031;-77
2021/12/02 05:33:53;;;;;;;9.93;1.50;;;;;;;;;;5099525;28;20302;-76
2021/12/02 05:36:19;;;;;;;5.13;1.50;;;;;;;;;;5103091;28;20374;-76
2021/12/02 05:38:44;;;;;;;7.72;1.50;;;;;;;;;;5101098;28;20032;-77
2021/12/02 05:41:12;;;;;;;3.35;1.40;;;;;;;;;;5100883;28;20016;-77
2021/12/02 05:43:38;;;;;;;7.93;1.52;;;;;;;;;;5091132;28;20024;-77
2021/12/02 05:46:05;;;;;;;9.15;2.00;;;;;;;;;;5096337;28;20197;-78
2021/12/02 05:48:30;;;;;;;4.63;1.35;;;;;;;;;;5087386;28;20311;-78
2021/12/02 05:50:56;;;;;;;7.97;1.50;;;;;;;;;;5099496;28;20020;-78
2021/12/02 05:53:21;;;;;;;3.63;1.10;;;;;;;;;;5101459;28;20024;-77
2021/12/02 05:55:46;;;;;;;6.75;2.13;;;;;;;;;;5081738;28;20021;-77
2021/12/02 05:58:13;;;;;;;6.07;1.80;;;;;;;;;;5090025;28;20323;-78
2021/12/02 06:00:40;;;;;;;8.70;1.95;;;;;;;;;;5101799;28;20300;-77
2021/12/02 06:03:05;;;;;;;5.75;1.27;;;;;;;;;;5091067;28;20029;-78
2021/12/02 06:05:31;;;;;;;4.45;1.60;;;;;;;;;;5101302;28;20031;-78
2021/12/02 06:07:58;;;;;;;7.55;2.10;;;;;;;;;;5099785;28;20095;-78
2021/12/02 06:10:25;;;;;;;8.43;1.95;;;;;;;;;;5102139;28;20024;-78
2021/12/02 06:12:50;;;;;;;10.35;1.83;;;;;;;;;;5100182;28;20055;-78
2021/12/02 06:15:16;;;;;;;7.03;1.52;;;;;;;;;;5095403;28;20043;-78
2021/12/02 06:17:43;;;;;;;7.88;1.65;;;;;;;;;;5102019;28;20087;-76
2021/12/02 06:20:10;;;;;;;6.80;1.52;;;;;;;;;;5100520;28;20051;-78
2021/12/02 06:22:36;;;;;;;9.02;2.00;;;;;;;;;;5100852;28;20066;-78
2021/12/02 06:27:52;;;;;;;5.93;1.55;;;;;;;;;;5094517;28;20289;-78
2021/12/02 06:30:19;;;;;;;9.23;2.15;;;;;;;;;;5088545;28;20087;-78
2021/12/02 06:32:45;;;;;;;15.63;2.30;;;;;;;;;;5082795;28;20027;-78
2021/12/02 06:35:11;;;;;;;11.32;1.70;;;;;;;;;;5081182;28;20032;-76
2021/12/02 06:37:37;;;;;;;6.78;1.90;;;;;;;;;;5089483;28;20028;-76
2021/12/02 06:40:04;;;;;;;6.82;1.90;;;;;;;;;;5100240;28;20087;-76
2021/12/02 06:42:29;;;;;;;6.45;2.00;;;;;;;;;;5098049;28;20091;-76
2021/12/02 06:44:57;;;;;;;5.55;1.63;;;;;;;;;;5098084;28;20027;-76
2021/12/02 06:47:27;;;;;;;7.18;1.70;;;;;;;;;;5099489;28;20325;-76
2021/12/02 06:49:53;;;;;;;7.40;1.80;;;;;;;;;;5100529;28;20019;-76
2021/12/02 06:52:18;;;;;;;5.90;1.55;;;;;;;;;;5085000;28;20090;-75
2021/12/02 06:54:43;;;;;;;4.35;1.25;;;;;;;;;;5080512;28;20031;-76
2021/12/02 06:57:09;;;;;;;8.13;1.65;;;;;;;;;;5080312;28;20020;-75
2021/12/02 06:59:35;;;;;;;6.55;1.50;;;;;;;;;;5081847;28;20032;-75
2021/12/02 07:02:00;;;;;;;10.07;1.70;;;;;;;;;;5080740;28;20024;-75
2021/12/02 07:04:25;;;;;;;6.38;1.50;;;;;;;;;;5083196;28;20025;-76
2021/12/02 07:06:51;;;;;;;6.70;1.40;;;;;;;;;;5082913;28;20032;-75
2021/12/02 07:09:17;;;;;;;10.40;1.90;;;;;;;;;;5086603;28;20055;-76
2021/12/02 07:11:43;;;;;;;5.82;1.42;;;;;;;;;;5087658;28;20017;-79
2021/12/02 07:14:14;;;;;;;8.00;1.67;;;;;;;;;;5080575;28;20099;-76
2021/12/02 07:16:40;;;;;;;8.30;1.70;;;;;;;;;;5080551;28;20024;-80
2021/12/02 07:19:08;;;;;;;6.82;1.80;;;;;;;;;;5084358;28;20254;-77
2021/12/02 07:21:36;;;;;;;4.00;1.50;;;;;;;;;;5098956;28;20274;-76
2021/12/02 07:24:03;;;;;;;9.93;1.85;;;;;;;;;;5099359;28;20019;-76
2021/12/02 07:26:28;;;;;;;9.80;1.63;;;;;;;;;;5099487;28;20016;-77
2021/12/02 07:28:54;;;;;;;9.68;1.63;;;;;;;;;;5104515;28;20046;-77
2021/12/02 07:31:21;;;;;;;9.52;1.92;;;;;;;;;;5106189;28;20016;-78
2021/12/02 07:33:48;;;;;;;12.73;2.30;;;;;;;;;;5105772;28;20026;-78
2021/12/02 07:36:14;;;;;;;9.63;1.80;;;;;;;;;;5106410;28;20093;-78
2021/12/02 07:38:40;;;;;;;6.70;1.45;;;;;;;;;;5104766;28;20036;-77
2021/12/02 07:41:06;;;;;;;12.32;1.80;;;;;;;;;;5090409;28;20087;-77
2021/12/02 07:43:34;;;;;;;10.18;1.80;;;;;;;;;;5086072;28;20020;-77
2021/12/02 07:46:01;;;;;;;4.57;1.58;;;;;;;;;;5085982;28;20024;-78
2021/12/02 07:48:27;;;;;;;10.73;1.85;;;;;;;;;;5080538;28;20032;-78
2021/12/02 07:50:59;;;;;;;7.53;1.80;;;;;;;;;;5085981;28;20044;-76
2021/12/02 07:53:27;;;;;;;6.05;1.55;;;;;;;;;;5086751;28;20030;-78
2021/12/02 07:55:54;;;;;;;5.55;1.33;;;;;;;;;;5086698;28;20095;-77
2021/12/02 07:58:21;;;;;;;8.40;1.70;;;;;;;;;;5087246;28;20020;-77
2021/12/02 08:00:48;;;;;;;7.38;1.40;;;;;;;;;;5086795;28;20028;-77
2021/12/02 08:03:13;;;;;;;11.30;1.95;;;;;;;;;;5087365;28;20016;-78
2021/12/02 08:05:40;;;;;;;6.35;1.60;;;;;;;;;;5086979;28;20024;-77
2021/12/02 08:08:05;;;;;;;5.70;1.83;;;;;;;;;;5087165;28;20130;-77
2021/12/02 08:10:31;;;;;;;6.97;1.60;;;;;;;;;;5086717;28;20032;-77
2021/12/02 08:12:59;;;;;;;14.25;2.15;;;;;;;;;;5086935;28;20044;-78
2021/12/02 08:15:27;;;;;;;12.30;1.83;;;;;;;;;;5086740;28;20052;-78
2021/12/02 08:17:54;;;;;;;6.05;1.70;;;;;;;;;;5085361;28;20032;-77
2021/12/02 08:20:21;;;;;;;4.85;1.80;;;;;;;;;;5086799;28;20028;-78
2021/12/02 08:22:47;;;;;;;11.05;2.00;;;;;;;;;;5087211;28;20053;-76
2021/12/02 08:25:14;;;;;;;7.57;1.77;;;;;;;;;;5086912;28;20098;-79
2021/12/02 08:27:43;;;;;;;9.82;2.20;;;;;;;;;;5085614;28;20060;-77
2021/12/02 08:30:11;;;;;;;9.48;2.10;;;;;;;;;;5086891;28;20021;-77
2021/12/02 08:32:39;;;;;;;6.63;2.00;;;;;;;;;;5086881;28;20024;-78
2021/12/02 08:35:05;;;;;;;7.00;1.67;;;;;;;;;;5086779;28;20021;-80
2021/12/02 08:37:31;;;;;;;13.70;2.08;;;;;;;;;;5086965;28;20044;-80
2021/12/02 08:40:00;;;;;;;8.38;1.40;;;;;;;;;;5090894;28;20031;-73
2021/12/02 08:42:32;;;;;;;6.78;1.42;;;;;;;;;;5087689;28;20025;-74
2021/12/02 08:44:58;;;;;;;7.25;2.10;;;;;;;;;;5082936;28;20100;-74
2021/12/02 08:47:24;;;;;;;7.75;1.40;;;;;;;;;;5083187;28;20025;-74
2021/12/02 08:49:54;;;;;;;9.13;1.70;;;;;;;;;;5082640;28;20097;-74
2021/12/02 08:52:24;;;;;;;6.65;1.58;;;;;;;;;;5082381;28;20473;-74
2021/12/02 08:54:51;;;;;;;8.63;1.75;;;;;;;;;;5082816;28;20261;-74
2021/12/02 08:57:18;;;;;;;11.32;1.80;;;;;;;;;;5082173;28;20092;-74
2021/12/02 08:59:44;;;;;;;8.50;1.55;;;;;;;;;;5081970;28;20108;-74
2021/12/02 09:02:10;;;;;;;9.98;1.60;;;;;;;;;;5082578;28;20020;-74
2021/12/02 09:04:36;;;;;;;7.72;1.48;;;;;;;;;;5082432;28;20316;-75
2021/12/02 09:07:02;;;;;;;7.18;1.73;;;;;;;;;;5082286;28;20032;-74
2021/12/02 09:09:28;;;;;;;8.25;1.60;;;;;;;;;;5082172;28;20051;-74
2021/12/02 09:11:55;;;;;;;5.78;1.58;;;;;;;;;;5081219;28;20042;-75
2021/12/02 09:14:20;;;;;;;10.93;1.60;;;;;;;;;;5082243;28;20080;-75
2021/12/02 09:16:46;;;;;;;9.50;1.80;;;;;;;;;;5081818;28;20031;-74
2021/12/02 09:19:12;;;;;;;6.18;1.58;;;;;;;;;;5082376;28;20068;-75
2021/12/02 09:21:37;;;;;;;8.77;1.83;;;;;;;;;;5082093;28;20020;-75
2021/12/02 09:24:03;;;;;;;7.43;1.70;;;;;;;;;;5080783;28;20479;-74
2021/12/02 09:26:28;;;;;;;8.95;1.65;;;;;;;;;;5081420;28;20020;-74
2021/12/02 09:28:56;;;;;;;6.20;1.58;;;;;;;;;;5081512;28;20150;-75
2021/12/02 09:31:22;;;;;;;9.32;1.80;;;;;;;;;;5082667;28;20024;-74
2021/12/02 09:33:48;;;;;;;13.13;2.20;;;;;;;;;;5082307;28;20310;-74
2021/12/02 09:36:14;;;;;;;10.98;1.80;;;;;;;;;;5082378;28;20127;-75
2021/12/02 09:38:39;;;;;;;8.95;1.77;;;;;;;;;;5082442;28;20028;-75
2021/12/02 09:41:05;;;;;;;10.55;1.88;;;;;;;;;;5082165;28;20035;-74
2021/12/02 09:43:31;;;;;;;9.88;1.85;;;;;;;;;;5082350;28;20321;-75
2021/12/02 09:45:56;;;;;;;14.60;2.35;;;;;;;;;;5082203;28;20040;-75
2021/12/02 09:48:22;;;;;;;9.32;1.95;;;;;;;;;;5082366;28;20086;-75
2021/12/02 09:51:01;;;;;;;7.35;1.50;;;;;;;;;;5081202;28;20068;-74
2021/12/02 09:53:31;;;;;;;6.68;1.40;;;;;;;;;;5081390;28;20028;-75
2021/12/02 09:56:11;;;;;;;10.02;1.58;;;;;;;;;;5081378;28;20022;-75
2021/12/02 09:58:36;;;;;;;10.10;1.55;;;;;;;;;;5081518;28;20444;-75
2021/12/02 10:01:08;;;;;;;11.63;1.95;;;;;;;;;;5080666;28;20020;-77
2021/12/02 10:03:37;;;;;;;10.13;2.00;;;;;;;;;;5079497;28;20036;-74
2021/12/02 10:06:19;;;;;;;11.02;1.75;;;;;;;;;;5091168;28;20058;-74
2021/12/02 10:11:38;;;;;;;6.45;1.70;;;;;;;;;;5101526;28;20091;-74
2021/12/02 10:14:12;;;;;;;8.27;1.50;;;;;;;;;;5101691;28;20020;-75
2021/12/02 10:16:42;;;;;;;10.48;1.70;;;;;;;;;;5100872;28;20031;-74
2021/12/02 10:19:15;;;;;;;8.70;1.80;;;;;;;;;;5101192;28;20103;-75
2021/12/02 10:21:56;;;;;;;8.73;1.60;;;;;;;;;;5101502;28;20055;-75
2021/12/02 10:24:25;;;;;;;9.13;1.67;;;;;;;;;;5100520;28;20115;-74
2021/12/02 10:26:55;;;;;;;4.05;1.23;;;;;;;;;;5101186;28;20221;-75
2021/12/02 10:29:23;;;;;;;6.85;1.45;;;;;;;;;;5101227;28;20031;-75
2021/12/02 10:32:25;;;;;;;6.97;1.75;;;;;;;;;;5100412;28;20228;-75
2021/12/02 10:35:10;;;;;;;5.78;1.45;;;;;;;;;;5101291;28;20024;-78
2021/12/02 10:37:39;;;;;;;6.72;1.60;;;;;;;;;;5101235;28;20303;-78
2021/12/02 10:40:08;;;;;;;5.65;1.30;;;;;;;;;;5100379;28;20028;-76
2021/12/02 10:42:43;;;;;;;9.10;1.40;;;;;;;;;;5100989;28;20019;-75
2021/12/02 10:45:23;;;;;;;6.00;1.40;;;;;;;;;;5096949;28;20036;-76
2021/12/02 10:47:52;;;;;;;7.38;1.60;;;;;;;;;;5100058;28;20031;-78
2021/12/02 10:50:18;;;;;;;3.92;1.30;;;;;;;;;;5097558;28;20015;-77
2021/12/02 10:52:44;;;;;;;6.93;1.30;;;;;;;;;;5094178;28;20077;-77
2021/12/02 10:55:19;;;;;;;9.75;1.60;;;;;;;;;;5085115;28;20020;-79
2021/12/02 10:57:50;;;;;;;12.52;2.40;;;;;;;;;;5085559;28;20020;-76
2021/12/02 11:00:19;;;;;;;5.18;1.15;;;;;;;;;;5083702;28;20080;-77
2021/12/02 11:02:49;;;;;;;11.52;1.98;;;;;;;;;;5081643;28;20052;-77
2021/12/02 11:05:21;;;;;;;5.63;1.40;;;;;;;;;;5078089;28;20036;-76
2021/12/02 11:08:05;;;;;;;8.20;1.50;;;;;;;;;;5078705;28;20020;-76
2021/12/02 11:10:46;;;;;;;5.53;1.23;;;;;;;;;;5078940;28;20078;-77
2021/12/02 11:13:23;;;;;;;7.22;1.40;;;;;;;;;;5078005;28;20017;-77
2021/12/02 11:15:48;;;;;;;8.82;1.50;;;;;;;;;;5078564;28;20028;-76
2021/12/02 11:18:17;;;;;;;3.75;1.30;;;;;;;;;;5079985;28;20138;-76
2021/12/02 11:20:51;;;;;;;4.18;1.30;;;;;;;;;;5080113;28;20024;-76
2021/12/02 11:23:28;;;;;;;6.30;1.58;;;;;;;;;;5081738;28;20051;-76
2021/12/02 11:25:59;;;;;;;7.32;1.77;;;;;;;;;;5078755;28;20031;-75
2021/12/02 11:28:31;;;;;;;5.40;1.50;;;;;;;;;;5079675;28;20037;-76
2021/12/02 11:31:06;;;;;;;7.38;1.77;;;;;;;;;;5079495;28;20251;-76
2021/12/02 11:33:35;;;;;;;7.75;1.60;;;;;;;;;;5080296;28;20020;-75
2021/12/02 11:36:01;;;;;;;8.48;1.63;;;;;;;;;;5083516;28;20040;-75
2021/12/02 11:38:28;;;;;;;3.05;1.20;;;;;;;;;;5091038;28;20021;-76
2021/12/02 11:40:59;;;;;;;3.20;1.17;;;;;;;;;;5084904;28;20025;-76
2021/12/02 11:43:28;;;;;;;10.25;1.63;;;;;;;;;;5081045;28;20020;-77
2021/12/02 11:45:55;;;;;;;5.30;1.40;;;;;;;;;;5079641;28;20032;-76
2021/12/02 11:48:25;;;;;;;6.72;1.35;;;;;;;;;;5085280;28;20340;-76
2021/12/02 11:50:52;;;;;;;6.15;1.42;;;;;;;;;;5088505;28;20119;-76
2021/12/02 11:53:21;;;;;;;4.28;1.20;;;;;;;;;;5085396;28;20093;-76
2021/12/02 11:55:49;;;;;;;7.18;1.40;;;;;;;;;;5090239;28;20444;-76
2021/12/02 11:58:15;;;;;;;12.80;1.80;;;;;;;;;;5099937;28;20028;-76
2021/12/02 12:00:44;;;;;;;5.78;1.40;;;;;;;;;;5099222;28;20449;-76
2021/12/02 12:03:18;;;;;;;4.75;1.20;;;;;;;;;;5099449;28;20016;-76
2021/12/02 12:05:53;;;;;;;4.60;1.48;;;;;;;;;;5099614;28;20012;-76
2021/12/02 12:08:33;;;;;;;;;;;;;;;;;;5099427;28;20032;-76
2021/12/02 12:11:22;;;;;;;4.55;1.98;;;;;;;;;;5098722;28;19927;-76
2021/12/02 12:13:56;;;;;;;4.63;1.08;;;;;;;;;;5086528;28;20255;-76
2021/12/02 12:16:27;;;;;;;1.90;0.98;;;;;;;;;;5103060;28;20032;-76
2021/12/02 12:18:56;;;;;;;5.90;1.20;;;;;;;;;;5103075;28;20035;-75
2021/12/02 12:21:39;;;;;;;3.70;1.00;;;;;;;;;;5103477;28;20020;-76
2021/12/02 12:24:06;;;;;;;2.05;0.65;;;;;;;;;;5093555;28;20256;-78
2021/12/02 12:26:35;;;;;;;4.95;1.08;;;;;;;;;;5083473;28;20020;-77
2021/12/02 12:29:06;;;;;;;1.58;0.70;;;;;;;;;;5082576;28;20134;-77
2021/12/02 12:31:37;;;;;;;5.07;1.00;;;;;;;;;;5098756;28;20030;-78
2021/12/02 12:34:29;;;;;;;2.83;0.80;;;;;;;;;;5103350;28;20047;-78
2021/12/02 12:36:55;;;;;;;14.10;1.40;;;;;;;;;;5102871;28;20066;-77
2021/12/02 12:39:24;;;;;;;2.35;0.80;;;;;;;;;;5103127;28;20016;-77
2021/12/02 12:42:15;;;;;;;2.42;1.00;;;;;;;;;;5103334;28;20095;-77
2021/12/02 12:44:58;;;;;;;3.50;1.23;;;;;;;;;;5103722;28;20055;-77
2021/12/02 12:47:52;;;;;;;3.25;0.98;;;;;;;;;;5102861;28;20027;-77
2021/12/02 12:50:45;;;;;;;3.70;1.20;;;;;;;;;;5105632;28;20032;-76
2021/12/02 12:53:16;;;;;;;3.63;1.10;;;;;;;;;;5104361;28;20020;-77
2021/12/02 12:55:55;;;;;;;7.78;1.00;;;;;;;;;;5103361;28;20024;-77
2021/12/02 12:58:26;;;;;;;2.35;0.80;;;;;;;;;;5094764;28;20108;-78
2021/12/02 13:01:20;;;;;;;5.15;1.10;;;;;;;;;;5083520;28;20182;-77
2021/12/02 13:04:07;;;;;;;2.05;1.00;;;;;;;;;;5083084;28;20017;-77
2021/12/02 13:06:50;;;;;;;7.13;1.17;;;;;;;;;;5083092;28;20025;-76
2021/12/02 13:09:36;;;;;;;4.43;1.10;;;;;;;;;;5082882;28;20047;-76
2021/12/02 13:12:03;;;;;;;2.45;0.70;;;;;;;;;;5083044;28;20213;-78
2021/12/02 13:14:29;;;;;;;7.10;1.00;;;;;;;;;;5082796;28;20024;-77
2021/12/02 13:16:55;;;;;;;6.18;1.08;;;;;;;;;;5082930;28;20123;-78
2021/12/02 13:19:20;;;;;;;2.28;0.98;;;;;;;;;;5082817;28;20336;-76
2021/12/02 13:21:57;;;;;;;6.72;1.38;;;;;;;;;;5082168;28;20265;-77
2021/12/02 13:24:35;;;;;;;3.58;0.98;;;;;;;;;;5079021;28;20032;-77
2021/12/02 13:27:03;;;;;;;1.83;0.90;;;;;;;;;;5079764;28;20012;-77
2021/12/02 13:29:35;;;;;;;5.50;0.88;;;;;;;;;;5081651;28;20058;-77
2021/12/02 13:32:04;;;;;;;3.53;1.17;;;;;;;;;;5081284;28;20031;-77
2021/12/02 13:34:32;;;;;;;3.47;0.98;;;;;;;;;;5081783;28;20320;-77
2021/12/02 13:37:13;;;;;;;1.92;0.75;;;;;;;;;;5082038;28;20021;-76
2021/12/02 13:39:40;;;;;;;1.83;0.75;;;;;;;;;;5079808;28;20028;-77
2021/12/02 13:42:09;;;;;;;3.53;1.02;;;;;;;;;;5081837;28;20028;-77
2021/12/02 13:44:43;;;;;;;3.33;1.08;;;;;;;;;;5081970;28;20028;-77
2021/12/02 13:47:16;;;;;;;3.28;1.00;;;;;;;;;;5081378;28;20024;-77
2021/12/02 13:49:49;;;;;;;3.33;1.00;;;;;;;;;;5081803;28;20095;-77
2021/12/02 13:52:21;;;;;;;2.67;0.60;;;;;;;;;;5080615;28;20224;-78
2021/12/02 13:54:52;;;;;;;4.05;1.10;;;;;;;;;;5080883;28;20021;-77
2021/12/02 13:57:44;;;;;;;6.47;1.20;;;;;;;;;;5081794;28;20028;-77
2021/12/02 14:00:26;;;;;;;4.40;0.80;;;;;;;;;;5080225;28;20255;-77
2021/12/02 14:02:59;;;;;;;3.92;1.00;;;;;;;;;;5081256;28;20036;-77
2021/12/02 14:05:26;;;;;;;4.75;1.30;;;;;;;;;;5080187;28;20232;-77
2021/12/02 14:07:55;;;;;;;4.20;1.10;;;;;;;;;;5082043;28;20017;-77
2021/12/02 14:10:25;;;;;;;4.93;1.42;;;;;;;;;;5081631;28;20277;-77
2021/12/02 14:12:53;;;;;;;3.58;0.75;;;;;;;;;;5081629;28;20048;-78
2021/12/02 14:15:21;;;;;;;4.45;1.00;;;;;;;;;;5081672;28;20027;-78
2021/12/02 14:17:54;;;;;;;2.95;1.15;;;;;;;;;;5084699;28;20043;-78
2021/12/02 14:20:23;;;;;;;3.50;1.10;;;;;;;;;;5084811;28;20078;-77
2021/12/02 14:22:55;;;;;;;4.30;1.20;;;;;;;;;;5079678;28;20075;-77
2021/12/02 14:25:25;;;;;;;5.05;0.90;;;;;;;;;;5079395;28;20254;-77
2021/12/02 14:28:14;;;;;;;6.10;1.10;;;;;;;;;;5081178;28;20020;-78
2021/12/02 14:30:55;;;;;;;2.88;1.00;;;;;;;;;;5096793;28;20024;-78
2021/12/02 14:33:29;;;;;;;4.38;0.90;;;;;;;;;;5102283;28;20024;-78
2021/12/02 14:36:15;;;;;;;2.97;0.90;;;;;;;;;;5102018;28;20020;-77
2021/12/02 14:38:43;;;;;;;2.65;1.10;;;;;;;;;;5101207;28;20024;-78
2021/12/02 14:41:19;;;;;;;3.13;1.10;;;;;;;;;;5095827;28;20073;-77
2021/12/02 14:43:52;;;;;;;5.28;1.38;;;;;;;;;;5079061;28;20031;-78
2021/12/02 14:46:25;;;;;;;5.25;1.15;;;;;;;;;;5080460;28;20313;-78
2021/12/02 14:49:10;;;;;;;2.97;1.02;;;;;;;;;;5081096;28;20033;-78
2021/12/02 14:52:03;;;;;;;4.10;1.10;;;;;;;;;;5081207;28;20025;-77
2021/12/02 14:54:43;;;;;;;2.42;0.90;;;;;;;;;;5081076;28;20124;-78
2021/12/02 14:57:11;;;;;;;4.78;1.00;;;;;;;;;;5080143;28;20107;-77
2021/12/02 14:59:38;;;;;;;6.22;0.93;;;;;;;;;;5081235;28;20028;-78
2021/12/02 15:02:09;;;;;;;3.78;1.00;;;;;;;;;;5092448;28;20020;-77
2021/12/02 15:04:58;;;;;;;2.20;1.02;;;;;;;;;;5081116;28;20027;-77
2021/12/02 15:07:35;;;;;;;5.00;1.23;;;;;;;;;;5079970;28;20085;-78
2021/12/02 15:10:13;;;;;;;3.40;1.17;;;;;;;;;;5080727;28;20052;-78
2021/12/02 15:12:42;;;;;;;1.67;0.80;;;;;;;;;;5081002;28;20087;-78
2021/12/02 15:15:09;;;;;;;7.13;1.20;;;;;;;;;;5079606;28;20047;-77